Data for 02/17/2013

Time Sea-Level Adjusted Pressure Absolute Pressure Temperature Relative Humidity Dew Point   
(mb) (inHg) (mb) (inHg) (C) (F) (%) (C) (F)
00:05 1010 29.83 840 24.81 2 35.7 50 -7.3 18.8
00:10 1010 29.83 839 24.78 2 35.5 50 -7.3 18.8
00:15 1010 29.83 839 24.78 2 35.6 48 -8 17.6
00:20 1010 29.83 839 24.78 2.6 36.6 44 -8.4 16.8
00:25 1010 29.83 839 24.78 3.1 37.5 43 -8.4 16.8
00:30 1010 29.83 839 24.78 3.5 38.2 39 -9.2 15.4
00:35 1010 29.83 839 24.78 3.6 38.5 40 -8.9 16
00:40 1010 29.83 839 24.78 3.8 38.8 38 -9.3 15.2
00:45 1009 29.8 839 24.78 4 39.3 39 -8.9 16
00:50 1009 29.8 839 24.78 4.1 39.4 38 -8.9 16
00:55 1009 29.8 839 24.78 4 39.2 40 -8.5 16.7
01:00 1009 29.8 839 24.78 3.6 38.5 41 -8.6 16.5
01:05 1009 29.8 838 24.75 3.6 38.5 41 -8.4 16.9
01:10 1009 29.8 838 24.75 3.4 38.1 42 -8.5 16.8
01:15 1009 29.8 838 24.75 3.3 38 42 -8.4 16.9
01:20 1009 29.8 838 24.75 3.1 37.6 43 -8.4 16.9
01:25 1009 29.8 838 24.75 4.1 39.4 38 -8.8 16.1
01:30 1009 29.8 838 24.75 4.6 40.2 38 -8.7 16.4
01:35 1009 29.8 838 24.75 4.3 39.8 41 -7.7 18.1
01:40 1009 29.8 838 24.75 4.2 39.6 39 -8.5 16.7
01:45 1009 29.8 838 24.75 4.3 39.7 41 -7.9 17.7
01:50 1009 29.8 838 24.75 3.9 39.1 42 -7.7 18.1
01:55 1009 29.8 838 24.75 3.8 38.8 43 -7.5 18.4
02:00 1009 29.8 838 24.75 3.9 39 41 -8.3 17
02:05 1009 29.8 838 24.75 4.2 39.6 41 -7.7 18.1
02:10 1009 29.8 838 24.75 4.2 39.5 41 -7.9 17.7
02:15 1009 29.8 838 24.75 4.4 39.9 40 -8.1 17.5
02:20 1009 29.8 838 24.75 4.4 40 40 -8 17.5
02:25 1009 29.8 838 24.75 4.4 39.9 41 -7.7 18.2
02:30 1009 29.8 838 24.75 4.1 39.4 44 -7 19.3
02:35 1009 29.8 838 24.75 3.6 38.6 45 -7.3 18.9
02:40 1009 29.8 838 24.75 3.9 39 43 -7.6 18.3
02:45 1009 29.8 839 24.78 3.4 38.1 47 -6.8 19.8
02:50 1009 29.8 839 24.78 2.7 36.9 52 -6.1 20.9
02:55 1009 29.8 839 24.78 2.2 36 56 -5.7 21.8
03:00 1009 29.8 839 24.78 2.1 35.9 57 -5.5 22.1
03:05 1010 29.83 839 24.78 2 35.6 64 -4.1 24.7
03:10 1010 29.83 839 24.78 1.3 34.3 73 -3 26.5
03:15 1010 29.83 839 24.78 0.6 33.1 81 -2.2 28
03:20 1010 29.83 839 24.78 0.1 32.2 86 -2 28.4
03:25 1010 29.83 839 24.78 -0.2 31.6 89 -1.8 28.8
03:30 1010 29.83 839 24.78 -0.4 31.3 91 -1.8 28.8
03:35 1010 29.83 839 24.78 -0.5 31.1 91 -1.7 28.9
03:40 1010 29.83 840 24.81 -0.6 31 92 -1.7 28.9
03:45 1010 29.83 840 24.81 -0.7 30.7 93 -1.7 28.9
03:50 1010 29.83 840 24.81 -0.8 30.5 93 -1.8 28.8
03:55 1010 29.83 840 24.81 -0.9 30.3 94 -1.8 28.7
04:00 1010 29.83 840 24.81 -1.1 30.1 95 -1.9 28.7
04:05 1010 29.83 840 24.81 -1.1 29.9 95 -1.8 28.7
04:10 1010 29.83 840 24.81 -1.2 29.8 95 -1.8 28.7
04:15 1010 29.83 839 24.78 -1.2 29.8 96 -1.8 28.7
04:20 1010 29.83 839 24.78 -1.2 29.8 96 -1.8 28.7
04:25 1010 29.83 839 24.78 -1.3 29.7 96 -1.9 28.6
04:30 1010 29.83 839 24.78 -1.3 29.7 96 -1.9 28.7
04:35 1010 29.83 839 24.78 -1.4 29.5 95 -2.1 28.3
04:40 1010 29.83 839 24.78 -1.5 29.2 95 -2.2 28
04:45 1010 29.83 839 24.78 -1.6 29.1 95 -2.3 27.9
04:50 1010 29.83 839 24.78 -1.6 29.2 96 -2.2 28
04:55 1010 29.83 839 24.78 -1.5 29.4 95 -2.2 28
05:00 1010 29.83 839 24.78 -1.2 29.8 88 -2.9 26.7
05:05 1009 29.8 839 24.78 -0.6 30.9 78 -4 24.7
05:10 1009 29.8 839 24.78 -0.2 31.6 77 -3.7 25.3
05:15 1009 29.8 839 24.78 -0.1 31.9 72 -4.5 23.8
05:20 1009 29.8 839 24.78 0.2 32.4 71 -4.4 24
05:25 1009 29.8 839 24.78 0.2 32.3 74 -3.8 25.1
05:30 1009 29.8 839 24.78 0.1 32.1 76 -3.7 25.4
05:35 1009 29.8 839 24.78 -0.1 31.9 72 -4.6 23.8
05:40 1009 29.8 839 24.78 0 32 73 -4.2 24.4
05:45 1009 29.8 839 24.78 0.1 32.1 73 -4.3 24.3
05:50 1009 29.8 839 24.78 -0.2 31.6 79 -3.4 25.8
05:55 1009 29.8 839 24.78 -0.6 30.9 79 -3.8 25.1
06:00 1009 29.8 839 24.78 -0.7 30.8 82 -3.3 26
06:05 1009 29.8 839 24.78 -0.9 30.3 84 -3.2 26.2
06:10 1009 29.8 839 24.78 -1 30.3 84 -3.4 25.9
06:15 1009 29.8 839 24.78 -1 30.3 83 -3.5 25.7
06:20 1009 29.8 838 24.75 -0.9 30.3 80 -3.9 24.9
06:25 1009 29.8 838 24.75 -0.8 30.6 78 -4.1 24.6
06:30 1009 29.8 838 24.75 -0.7 30.7 78 -4.1 24.5
06:35 1009 29.8 838 24.75 -0.6 30.8 73 -4.8 23.3
06:40 1009 29.8 838 24.75 -0.4 31.3 73 -4.5 23.8
06:45 1009 29.8 838 24.75 -0.3 31.5 76 -3.9 24.9
06:50 1009 29.8 838 24.75 -0.4 31.3 81 -3.2 26.2
06:55 1009 29.8 838 24.75 -0.6 31 82 -3.3 26.1
07:00 1009 29.8 838 24.75 -0.6 30.9 80 -3.7 25.4
07:05 1009 29.8 838 24.75 -0.5 31 80 -3.6 25.5
07:10 1009 29.8 838 24.75 -0.5 31.1 79 -3.8 25.2
07:15 1009 29.8 838 24.75 -0.4 31.2 76 -4.2 24.5
07:20 1009 29.8 839 24.78 -0.4 31.3 75 -4.2 24.4
07:25 1010 29.83 839 24.78 -0.5 31.1 84 -2.8 26.9
07:30 1010 29.83 839 24.78 -1.4 29.5 91 -2.7 27.1
07:35 1010 29.83 839 24.78 -2 28.3 93 -3.1 26.5
07:40 1010 29.83 839 24.78 -2.4 27.7 92 -3.5 25.8
07:45 1010 29.83 839 24.78 -2.6 27.3 93 -3.6 25.5
07:50 1010 29.83 839 24.78 -2.7 27.2 94 -3.6 25.6
07:55 1010 29.83 839 24.78 -2.7 27.1 94 -3.6 25.5
08:00 1010 29.83 839 24.78 -2.8 27 93 -3.7 25.3
08:05 1010 29.83 839 24.78 -2.7 27.1 93 -3.7 25.3
08:10 1010 29.83 839 24.78 -2.8 26.9 93 -3.8 25.1
08:15 1010 29.83 840 24.81 -2.9 26.7 94 -3.8 25.1
08:20 1010 29.83 840 24.81 -3 26.6 94 -3.8 25.1
08:25 1011 29.85 840 24.81 -3 26.5 94 -3.9 25
08:30 1011 29.85 840 24.81 -3.1 26.5 94 -3.9 25
08:35 1011 29.85 840 24.81 -3 26.5 94 -3.9 25
08:40 1011 29.85 840 24.81 -3 26.5 93 -4 24.9
08:45 1011 29.85 840 24.81 -3.1 26.5 93 -4 24.7
08:50 1011 29.85 840 24.81 -3 26.6 92 -4.1 24.6
08:55 1011 29.85 840 24.81 -2.9 26.8 91 -4.2 24.5
09:00 1011 29.85 840 24.81 -3.1 26.5 91 -4.3 24.3
09:05 1011 29.85 840 24.81 -3 26.6 91 -4.3 24.3
09:10 1011 29.85 840 24.81 -2.9 26.7 90 -4.4 24
09:15 1011 29.85 840 24.81 -2.8 27 89 -4.3 24.3
09:20 1011 29.85 840 24.81 -2.6 27.3 88 -4.4 24.1
09:25 1011 29.85 840 24.81 -2.2 28 86 -4.2 24.4
09:30 1011 29.85 840 24.81 -2.1 28.2 86 -4.1 24.6
09:35 1011 29.85 840 24.81 -2.2 28 86 -4.2 24.4
09:40 1011 29.85 840 24.81 -1.9 28.5 82 -4.6 23.8
09:45 1011 29.85 840 24.81 -1.7 29 79 -4.9 23.2
09:50 1011 29.85 840 24.81 -1.5 29.2 76 -5.3 22.4
09:55 1011 29.85 841 24.83 -1.4 29.4 71 -6 21.1
10:00 1011 29.85 841 24.83 -1.3 29.7 67 -6.7 19.9
10:05 1012 29.88 841 24.83 -1.2 29.8 65 -7 19.4
10:10 1012 29.88 841 24.83 -1.2 29.8 64 -7.2 19.1
10:15 1012 29.88 841 24.83 -1.3 29.6 63 -7.4 18.7
10:20 1012 29.88 841 24.83 -1.3 29.6 64 -7.2 19
10:25 1012 29.88 841 24.83 -1.3 29.7 63 -7.4 18.6
10:30 1012 29.88 841 24.83 -1.3 29.7 62 -7.6 18.3
10:35 1012 29.88 841 24.83 -1.2 29.8 63 -7.5 18.5
10:40 1012 29.88 841 24.83 -1.2 29.8 61 -7.8 18
10:45 1012 29.88 841 24.83 -1.2 29.8 63 -7.4 18.7
10:50 1012 29.88 841 24.83 -1.3 29.7 66 -6.7 19.9
10:55 1012 29.88 841 24.83 -1.5 29.2 71 -6.1 21.1
11:00 1012 29.88 841 24.83 -1.7 29 72 -6.1 21
11:05 1012 29.88 841 24.83 -1.6 29.2 70 -6.3 20.7
11:10 1012 29.88 841 24.83 -1.4 29.5 69 -6.4 20.5
11:15 1012 29.88 841 24.83 -1.4 29.6 70 -6.1 21
11:20 1012 29.88 841 24.83 -1.3 29.6 69 -6.3 20.7
11:25 1012 29.88 841 24.83 -1.1 30 68 -6.2 20.8
11:30 1012 29.88 841 24.83 -0.7 30.7 67 -6.1 21
11:35 1012 29.88 841 24.83 -0.8 30.5 71 -5.5 22.1
11:40 1012 29.88 841 24.83 -1 30.1 71 -5.6 21.9
11:45 1012 29.88 841 24.83 -1 30.3 71 -5.5 22
11:50 1012 29.88 841 24.83 -0.6 30.9 69 -5.6 22
11:55 1012 29.88 842 24.86 -0.4 31.2 69 -5.4 22.3
12:00 1012 29.88 842 24.86 -0.6 31 69 -5.5 22.1
12:05 1012 29.88 842 24.86 -0.3 31.5 69 -5.4 22.3
12:10 1012 29.88 841 24.83 -0.3 31.5 67 -5.6 22
12:15 1012 29.88 841 24.83 -0.7 30.7 70 -5.5 22.1
12:20 1012 29.88 842 24.86 -0.8 30.5 69 -5.8 21.6
12:25 1012 29.88 842 24.86 -1 30.3 70 -5.7 21.8
12:30 1012 29.88 842 24.86 -0.9 30.3 70 -5.7 21.8
12:35 1013 29.91 842 24.86 -0.8 30.5 70 -5.6 21.8
12:40 1013 29.91 842 24.86 -1.7 29 75 -5.5 22.1
12:45 1013 29.91 842 24.86 -2.2 28.1 77 -5.7 21.8
12:50 1013 29.91 842 24.86 -2.1 28.3 74 -6.1 21.1
12:55 1013 29.91 842 24.86 -2 28.5 73 -6.3 20.7
13:00 1013 29.91 842 24.86 -1.9 28.5 73 -6.2 20.9
13:05 1013 29.91 842 24.86 -1.8 28.7 73 -6.1 21
13:10 1013 29.91 842 24.86 -1.9 28.6 73 -6.1 21
13:15 1013 29.91 842 24.86 -1.8 28.7 73 -6 21.2
13:20 1012 29.88 842 24.86 -1.6 29.1 69 -6.5 20.2
13:25 1012 29.88 842 24.86 -1.3 29.7 68 -6.4 20.5
13:30 1012 29.88 842 24.86 -0.4 31.2 60 -7.2 19
13:35 1012 29.88 841 24.83 -0.3 31.5 58 -7.6 18.2
13:40 1012 29.88 841 24.83 -0.2 31.6 59 -7.2 19.1
13:45 1012 29.88 841 24.83 -0.1 31.7 58 -7.4 18.6
13:50 1012 29.88 842 24.86 -0.1 31.8 58 -7.5 18.5
13:55 1012 29.88 841 24.83 -0 31.9 58 -7.2 19
14:00 1012 29.88 841 24.83 -0 31.9 59 -7.1 19.3
14:05 1012 29.88 841 24.83 0.1 32.1 59 -7 19.5
14:10 1012 29.88 841 24.83 0.1 32.2 59 -7.1 19.3
14:15 1012 29.88 841 24.83 0.2 32.3 58 -7 19.4
14:20 1012 29.88 842 24.86 0.1 32.2 59 -6.9 19.6
14:25 1012 29.88 842 24.86 -0.2 31.6 60 -7 19.4
14:30 1012 29.88 842 24.86 -0.1 31.7 62 -6.5 20.2
14:35 1012 29.88 842 24.86 -0.4 31.3 65 -6.1 21
14:40 1012 29.88 842 24.86 -0.2 31.7 62 -6.6 20.2
14:45 1012 29.88 842 24.86 0.2 32.4 60 -6.6 20.1
14:50 1012 29.88 842 24.86 0.2 32.3 64 -5.8 21.5
14:55 1012 29.88 842 24.86 -0.5 31.1 69 -5.4 22.2
15:00 1012 29.88 842 24.86 -0.8 30.6 69 -5.7 21.7
15:05 1012 29.88 842 24.86 -0.8 30.5 68 -6 21.1
15:10 1012 29.88 842 24.86 -0.9 30.5 69 -5.8 21.5
15:15 1012 29.88 842 24.86 -0.6 31 67 -5.9 21.3
15:20 1012 29.88 842 24.86 -0.4 31.3 65 -6.1 21.1
15:25 1012 29.88 842 24.86 -0.2 31.7 64 -6.2 20.8
15:30 1013 29.91 842 24.86 -0.2 31.7 63 -6.4 20.6
15:35 1013 29.91 842 24.86 -0.5 31.1 67 -5.9 21.3
15:40 1013 29.91 842 24.86 -0.8 30.5 71 -5.4 22.3
15:45 1013 29.91 842 24.86 -1 30.3 73 -5.1 22.7
15:50 1013 29.91 842 24.86 -1.2 29.8 78 -4.6 23.8
15:55 1013 29.91 842 24.86 -1.5 29.4 82 -4.2 24.5
16:00 1013 29.91 842 24.86 -1.5 29.3 82 -4.2 24.5
16:05 1013 29.91 842 24.86 -1.6 29.1 83 -4.1 24.6
16:10 1013 29.91 842 24.86 -1.6 29.2 83 -4.1 24.5
16:15 1013 29.91 842 24.86 -1.5 29.3 83 -4.1 24.6
16:20 1013 29.91 842 24.86 -1.3 29.7 80 -4.3 24.3
16:25 1013 29.91 842 24.86 -1.1 30 80 -4.1 24.6
16:30 1013 29.91 842 24.86 -1.1 30 80 -4.1 24.6
16:35 1013 29.91 842 24.86 -1.2 29.8 80 -4.2 24.4
16:40 1013 29.91 842 24.86 -1.6 29.2 82 -4.2 24.4
16:45 1013 29.91 842 24.86 -1.5 29.4 81 -4.3 24.2
16:50 1013 29.91 842 24.86 -1.8 28.8 83 -4.3 24.2
16:55 1013 29.91 842 24.86 -1.8 28.7 82 -4.6 23.8
17:00 1013 29.91 842 24.86 -1.5 29.2 81 -4.4 24
17:05 1013 29.91 842 24.86 -0.9 30.3 78 -4.3 24.2
17:10 1013 29.91 842 24.86 -0.8 30.6 75 -4.6 23.7
17:15 1013 29.91 842 24.86 -1 30.1 77 -4.6 23.8
17:20 1013 29.91 843 24.89 -1 30.2 75 -4.9 23.3
17:25 1013 29.91 843 24.89 -1.1 29.9 76 -4.9 23.2
17:30 1013 29.91 843 24.89 -1.3 29.7 76 -5.1 22.9
17:35 1014 29.94 843 24.89 -1.6 29.1 78 -4.9 23.2
17:40 1014 29.94 843 24.89 -1.6 29.2 77 -5.1 22.9
17:45 1014 29.94 843 24.89 -1.3 29.7 75 -5.1 22.7
17:50 1014 29.94 843 24.89 -1.6 29.1 77 -5.1 22.8
17:55 1014 29.94 843 24.89 -1.7 28.9 76 -5.4 22.4
18:00 1014 29.94 843 24.89 -1.7 29 75 -5.5 22.1
18:05 1014 29.94 843 24.89 -1.8 28.8 76 -5.4 22.2
18:10 1014 29.94 843 24.89 -1.9 28.5 76 -5.6 22
18:15 1014 29.94 843 24.89 -2 28.4 77 -5.6 22
18:20 1014 29.94 843 24.89 -2.1 28.2 77 -5.6 22
18:25 1014 29.94 843 24.89 -2.1 28.2 75 -6 21.3
18:30 1014 29.94 843 24.89 -2.1 28.3 76 -5.8 21.6
18:35 1014 29.94 843 24.89 -2 28.4 73 -6.2 20.9
18:40 1014 29.94 843 24.89 -1.8 28.7 71 -6.4 20.4
18:45 1014 29.94 843 24.89 -1.7 28.9 71 -6.4 20.5
18:50 1014 29.94 843 24.89 -1.8 28.8 71 -6.4 20.5
18:55 1014 29.94 843 24.89 -1.8 28.8 69 -6.7 19.9
19:00 1014 29.94 843 24.89 -1.7 29 69 -6.6 20.2
19:05 1014 29.94 843 24.89 -1.7 29 68 -6.9 19.6
19:10 1014 29.94 843 24.89 -1.7 29 68 -6.8 19.7
19:15 1014 29.94 843 24.89 -1.6 29 68 -6.8 19.8
19:20 1014 29.94 843 24.89 -1.8 28.8 69 -6.7 19.9
19:25 1014 29.94 843 24.89 -2 28.5 71 -6.6 20.1
19:30 1014 29.94 843 24.89 -2.1 28.2 72 -6.5 20.4
19:35 1014 29.94 844 24.92 -2.2 28 72 -6.6 20.1
19:40 1014 29.94 844 24.92 -2.1 28.3 71 -6.7 19.9
19:45 1014 29.94 844 24.92 -2 28.4 70 -6.8 19.8
19:50 1014 29.94 844 24.92 -2 28.4 71 -6.6 20.1
19:55 1014 29.94 844 24.92 -2 28.4 70 -6.8 19.7
20:00 1014 29.94 844 24.92 -1.8 28.7 68 -7 19.4
20:05 1014 29.94 844 24.92 -1.7 28.9 68 -6.9 19.6
20:10 1014 29.94 844 24.92 -1.6 29.1 66 -7.2 19
20:15 1014 29.94 844 24.92 -1.5 29.2 66 -7.1 19.1
20:20 1015 29.97 844 24.92 -1.5 29.3 65 -7.1 19.1
20:25 1015 29.97 844 24.92 -1.5 29.2 65 -7.2 19
20:30 1015 29.97 844 24.92 -1.5 29.3 65 -7.3 18.8
20:35 1015 29.97 844 24.92 -1.4 29.5 64 -7.3 18.8
20:40 1015 29.97 844 24.92 -1.3 29.6 61 -7.9 17.7
20:45 1015 29.97 844 24.92 -1.1 30 59 -8.2 17.3
20:50 1015 29.97 844 24.92 -1 30.1 58 -8.3 17.1
20:55 1015 29.97 844 24.92 -1.1 30 58 -8.3 17.1
21:00 1015 29.97 844 24.92 -1.2 29.9 59 -8.1 17.3
21:05 1015 29.97 844 24.92 -1.2 29.9 59 -8.2 17.2
21:10 1015 29.97 844 24.92 -1.2 29.8 60 -8.1 17.4
21:15 1015 29.97 844 24.92 -1.3 29.6 60 -8.1 17.5
21:20 1015 29.97 844 24.92 -1.3 29.6 60 -8.1 17.4
21:25 1015 29.97 844 24.92 -1.4 29.4 60 -8.2 17.3
21:30 1015 29.97 844 24.92 -1.5 29.3 61 -8 17.5
21:35 1015 29.97 844 24.92 -1.6 29.1 61 -8.1 17.4
21:40 1015 29.97 844 24.92 -1.6 29 61 -8.2 17.3
21:45 1015 29.97 844 24.92 -1.7 29 61 -8.2 17.3
21:50 1015 29.97 844 24.92 -1.6 29.1 61 -8.2 17.3
21:55 1015 29.97 844 24.92 -1.5 29.2 62 -7.9 17.7
22:00 1015 29.97 844 24.92 -1.6 29.2 63 -7.6 18.3
22:05 1015 29.97 844 24.92 -1.7 28.9 65 -7.5 18.5
22:10 1015 29.97 844 24.92 -1.8 28.7 66 -7.4 18.7
22:15 1015 29.97 844 24.92 -1.9 28.6 67 -7.3 18.9
22:20 1015 29.97 845 24.95 -1.9 28.5 67 -7.2 19
22:25 1015 29.97 845 24.95 -2 28.4 69 -7 19.5
22:30 1015 29.97 845 24.95 -2 28.4 71 -6.6 20.1
22:35 1015 29.97 845 24.95 -2.1 28.2 75 -6 21.3
22:40 1016 30 845 24.95 -2.3 27.9 78 -5.6 21.9
22:45 1016 30 845 24.95 -2.5 27.6 80 -5.4 22.2
22:50 1016 30 845 24.95 -2.7 27.2 83 -5.1 22.7
22:55 1016 30 845 24.95 -2.9 26.8 87 -4.8 23.4
23:00 1016 30 845 24.95 -3 26.6 88 -4.7 23.6
23:05 1016 30 845 24.95 -3 26.6 90 -4.5 23.9
23:10 1016 30 845 24.95 -3 26.5 91 -4.4 24.1
23:15 1016 30 845 24.95 -3 26.6 90 -4.4 24.2
23:20 1016 30 845 24.95 -3 26.6 89 -4.6 23.7
23:25 1016 30 845 24.95 -3.1 26.4 88 -4.8 23.3
23:30 1016 30 845 24.95 -3.2 26.2 89 -4.8 23.3
23:35 1016 30 845 24.95 -3.3 26 89 -4.9 23.3
23:40 1016 30 845 24.95 -3.4 25.8 91 -4.7 23.5
23:45 1016 30 845 24.95 -3.5 25.7 92 -4.7 23.6
23:50 1016 30 845 24.95 -3.6 25.5 92 -4.7 23.5
23:55 1016 30 845 24.95 -3.7 25.3 92 -4.8 23.3
24:00 1016 30 845 24.95 -3.7 25.3 92 -4.8 23.3